Time;durP1;ratioP1;P1;durP2;ratioP2;P2;SDS_P1;SDS_P2;PMS_P1;PMS_P2;Temp;Humidity;BMP_temperature;BMP_pressure;BME280_temperature;BME280_humidity;BME280_pressure;Samples;Min_cycle;Max_cycle;Signal;HPM_P1;HPM_P2
2022/01/17 00:01:46;;;;;;;;;;;6.50;99.90;;;;;;5071394;28;20223;-78
2022/01/17 00:04:11;;;;;;;;;;;6.50;99.90;;;;;;5071234;28;19925;-80
2022/01/17 00:06:37;;;;;;;;;;;6.50;99.90;;;;;;5070682;28;19931;-79
2022/01/17 00:09:03;;;;;;;;;;;6.60;99.90;;;;;;5070607;28;20365;-79
2022/01/17 00:11:28;;;;;;;;;;;6.60;99.90;;;;;;5071269;28;19912;-77
2022/01/17 00:13:55;;;;;;;;;;;6.50;99.90;;;;;;5053286;28;19921;-78
2022/01/17 00:16:28;;;;;;;;;;;6.50;99.90;;;;;;5052169;28;19916;-78
2022/01/17 00:19:18;;;;;;;;;;;6.40;99.90;;;;;;5062393;28;19912;-78
2022/01/17 00:21:43;;;;;;;;;;;6.40;99.90;;;;;;5048292;28;19952;-78
2022/01/17 00:24:09;;;;;;;;;;;6.50;99.90;;;;;;5051527;28;19959;-79
2022/01/17 00:26:35;;;;;;;;;;;6.50;99.90;;;;;;5068115;28;19916;-78
2022/01/17 00:29:03;;;;;;;;;;;6.50;99.90;;;;;;5074377;28;20450;-80
2022/01/17 00:31:28;;;;;;;;;;;6.50;99.90;;;;;;5074562;28;19916;-78
2022/01/17 00:33:54;;;;;;;;;;;6.50;99.90;;;;;;5059348;28;19928;-79
2022/01/17 00:36:19;;;;;;;;;;;6.50;99.90;;;;;;5056762;28;19924;-79
2022/01/17 00:38:45;;;;;;;;;;;6.50;99.90;;;;;;5057386;28;20311;-80
2022/01/17 00:41:10;;;;;;;;;;;6.50;99.90;;;;;;5074923;28;19973;-80
2022/01/17 00:43:36;;;;;;;;;;;6.50;99.90;;;;;;5056805;28;20011;-79
2022/01/17 00:46:01;;;;;;;;;;;6.50;99.90;;;;;;5056781;28;19939;-79
2022/01/17 00:48:27;;;;;;;;;;;6.50;99.90;;;;;;5075242;28;19916;-79
2022/01/17 00:50:52;;;;;;;;;;;6.50;99.90;;;;;;5075211;28;19924;-80
2022/01/17 00:53:18;;;;;;;;;;;6.50;99.90;;;;;;5072788;28;20295;-78
2022/01/17 00:55:44;;;;;;;;;;;6.40;99.90;;;;;;5070910;28;19920;-78
2022/01/17 00:58:09;;;;;;;;;;;6.50;99.90;;;;;;5055674;28;19919;-79
2022/01/17 01:00:35;;;;;;;;;;;6.50;99.90;;;;;;5055881;28;20365;-80
2022/01/17 01:03:01;;;;;;;;;;;6.50;99.90;;;;;;5055666;28;20319;-79
2022/01/17 01:05:28;;;;;;;;;;;6.50;99.90;;;;;;5031014;28;19929;-78
2022/01/17 01:07:54;;;;;;;;;;;6.50;99.90;;;;;;5053566;28;19921;-79
2022/01/17 01:10:19;;;;;;;;;;;6.40;99.90;;;;;;5053396;28;20014;-78
2022/01/17 01:12:47;;;;;;;;;;;6.30;99.90;;;;;;5052339;28;19921;-78
2022/01/17 01:15:22;;;;;;;;;;;6.20;99.90;;;;;;5054449;28;20450;-79
2022/01/17 01:17:56;;;;;;;;;;;6.20;99.90;;;;;;5050715;28;19917;-78
2022/01/17 01:28:22;;;;;;;;;;;6.10;99.90;;;;;;5057438;28;20039;-78
2022/01/17 01:30:51;;;;;;;;;;;6.00;99.90;;;;;;5057395;28;20354;-78
2022/01/17 01:33:24;;;;;;;;;;;6.00;99.90;;;;;;5057266;28;19913;-78
2022/01/17 01:35:56;;;;;;;;;;;6.10;99.90;;;;;;5040341;28;20300;-77
2022/01/17 01:38:22;;;;;;;;;;;6.10;99.90;;;;;;5057397;28;20059;-78
2022/01/17 01:40:47;;;;;;;;;;;6.10;99.90;;;;;;5052996;28;20003;-79
2022/01/17 01:43:13;;;;;;;;;;;6.10;99.90;;;;;;5047099;28;20320;-78
2022/01/17 01:45:39;;;;;;;;;;;6.10;99.90;;;;;;5057545;28;20004;-77
2022/01/17 01:48:05;;;;;;;;;;;6.10;99.90;;;;;;5057192;28;20275;-78
2022/01/17 01:50:31;;;;;;;;;;;6.10;99.90;;;;;;5040825;28;19967;-77
2022/01/17 01:52:56;;;;;;;;;;;5.90;99.90;;;;;;5052468;28;19909;-78
2022/01/17 01:55:22;;;;;;;;;;;5.80;99.90;;;;;;5049121;28;19917;-77
2022/01/17 01:57:48;;;;;;;;;;;5.80;99.90;;;;;;5052730;28;20218;-78
2022/01/17 02:00:14;;;;;;;;;;;5.70;99.90;;;;;;5056984;28;19919;-77
2022/01/17 02:02:40;;;;;;;;;;;5.60;99.90;;;;;;5056943;28;19967;-77
2022/01/17 02:05:06;;;;;;;;;;;5.50;99.90;;;;;;5056704;28;19964;-79
2022/01/17 02:07:32;;;;;;;;;;;5.50;99.90;;;;;;5045519;28;20256;-77
2022/01/17 02:09:58;;;;;;;;;;;5.50;99.90;;;;;;5047790;28;19916;-79
2022/01/17 02:12:25;;;;;;;;;;;5.40;99.90;;;;;;5053228;28;19920;-77
2022/01/17 02:14:53;;;;;;;;;;;5.40;99.90;;;;;;5056649;28;20264;-77
2022/01/17 02:17:20;;;;;;;;;;;5.30;99.90;;;;;;5061377;28;19921;-78
2022/01/17 02:19:50;;;;;;;;;;;5.30;99.90;;;;;;5056503;28;19921;-78
2022/01/17 02:22:16;;;;;;;;;;;5.30;99.90;;;;;;5061068;28;19919;-77
2022/01/17 02:24:42;;;;;;;;;;;5.20;99.90;;;;;;5069322;28;20250;-77
2022/01/17 02:27:07;;;;;;;;;;;5.20;99.90;;;;;;5056889;28;20289;-77
2022/01/17 02:29:33;;;;;;;;;;;5.10;99.90;;;;;;5048279;28;19967;-77
2022/01/17 02:31:58;;;;;;;;;;;5.10;99.90;;;;;;5048078;28;20525;-77
2022/01/17 02:34:24;;;;;;;;;;;5.00;99.90;;;;;;5056237;28;19917;-77
2022/01/17 02:36:49;;;;;;;;;;;5.00;99.90;;;;;;5056553;28;20350;-77
2022/01/17 02:39:15;;;;;;;;;;;5.00;99.90;;;;;;5047082;28;19917;-77
2022/01/17 02:41:43;;;;;;;;;;;4.90;99.90;;;;;;5055286;28;19913;-77
2022/01/17 02:44:10;;;;;;;;;;;4.90;99.90;;;;;;5056271;28;19940;-77
2022/01/17 02:46:36;;;;;;;;;;;4.80;99.90;;;;;;5050006;28;20323;-77
2022/01/17 02:49:03;;;;;;;;;;;4.80;99.90;;;;;;5052484;28;19960;-77
2022/01/17 02:51:28;;;;;;;;;;;4.80;99.90;;;;;;5048287;28;19912;-77
2022/01/17 02:53:54;;;;;;;;;;;4.90;99.90;;;;;;5056252;28;19919;-76
2022/01/17 02:56:20;;;;;;;;;;;4.90;99.90;;;;;;5056617;28;20009;-77
2022/01/17 02:58:46;;;;;;;;;;;4.80;99.90;;;;;;5049919;28;19999;-78
2022/01/17 03:01:17;;;;;;;;;;;4.70;99.90;;;;;;5053803;28;19913;-77
2022/01/17 03:03:43;;;;;;;;;;;4.70;99.90;;;;;;5055026;28;19920;-77
2022/01/17 03:06:10;;;;;;;;;;;4.70;99.90;;;;;;5055882;28;19913;-77
2022/01/17 03:08:36;;;;;;;;;;;4.60;99.90;;;;;;5054957;28;20308;-77
2022/01/17 03:11:05;;;;;;;;;;;4.60;99.90;;;;;;5052277;28;20340;-77
2022/01/17 03:13:32;;;;;;;;;;;4.50;99.90;;;;;;5055656;28;19940;-77
2022/01/17 03:15:59;;;;;;;;;;;4.50;99.90;;;;;;5054974;28;19951;-76
2022/01/17 03:18:27;;;;;;;;;;;4.50;99.90;;;;;;5055482;28;19920;-77
2022/01/17 03:20:53;;;;;;;;;;;4.40;99.90;;;;;;5055677;28;19912;-76
2022/01/17 03:23:18;;;;;;;;;;;4.30;99.90;;;;;;5055711;28;19954;-77
2022/01/17 03:25:44;;;;;;;;;;;4.20;99.90;;;;;;5050249;28;19917;-77
2022/01/17 03:28:10;;;;;;;;;;;4.10;99.90;;;;;;5055528;28;19925;-77
2022/01/17 03:30:36;;;;;;;;;;;3.90;99.90;;;;;;5055478;28;20266;-77
2022/01/17 03:33:03;;;;;;;;;;;3.80;99.90;;;;;;5052626;28;19920;-77
2022/01/17 03:35:28;;;;;;;;;;;3.80;99.90;;;;;;5053787;28;19920;-77
2022/01/17 03:37:54;;;;;;;;;;;3.80;99.90;;;;;;5051516;28;19916;-77
2022/01/17 03:40:20;;;;;;;;;;;3.70;99.90;;;;;;5046536;28;19923;-78
2022/01/17 03:42:45;;;;;;;;;;;3.70;99.90;;;;;;5054972;28;19979;-77
2022/01/17 03:45:11;;;;;;;;;;;3.70;99.90;;;;;;5050272;28;19929;-76
2022/01/17 03:47:40;;;;;;;;;;;3.70;99.90;;;;;;5049245;28;19909;-77
2022/01/17 03:50:08;;;;;;;;;;;3.60;99.90;;;;;;5054302;28;20296;-77
2022/01/17 03:52:34;;;;;;;;;;;3.60;99.90;;;;;;5048732;28;19978;-77
2022/01/17 03:54:59;;;;;;;;;;;3.70;99.90;;;;;;5054480;28;19917;-76
2022/01/17 03:57:25;;;;;;;;;;;3.60;99.90;;;;;;5051417;28;20326;-77
2022/01/17 03:59:50;;;;;;;;;;;3.60;99.90;;;;;;5050202;28;20232;-77
2022/01/17 04:02:16;;;;;;;;;;;3.60;99.90;;;;;;5045118;28;20193;-77
2022/01/17 04:04:41;;;;;;;;;;;3.60;99.90;;;;;;5053463;28;19974;-77
2022/01/17 04:07:07;;;;;;;;;;;3.60;99.90;;;;;;5047494;28;19939;-76
2022/01/17 04:09:33;;;;;;;;;;;3.60;99.90;;;;;;5051382;28;19967;-77
2022/01/17 04:11:58;;;;;;;;;;;3.60;99.90;;;;;;5055170;28;19916;-77
2022/01/17 04:14:24;;;;;;;;;;;3.60;99.90;;;;;;5054169;28;19956;-76
2022/01/17 04:16:49;;;;;;;;;;;3.50;99.90;;;;;;5053097;28;19931;-77
2022/01/17 04:19:17;;;;;;;;;;;3.50;99.90;;;;;;5055115;28;19951;-77
2022/01/17 04:21:42;;;;;;;;;;;3.50;99.90;;;;;;5053756;28;19956;-77
2022/01/17 04:24:08;;;;;;;;;;;3.50;99.90;;;;;;5045522;28;19952;-77
2022/01/17 04:26:33;;;;;;;;;;;3.50;99.90;;;;;;5049917;28;20197;-77
2022/01/17 04:28:59;;;;;;;;;;;3.50;99.90;;;;;;5054220;28;20300;-77
2022/01/17 04:31:24;;;;;;;;;;;3.40;99.90;;;;;;5054618;28;19917;-77
2022/01/17 04:33:50;;;;;;;;;;;3.50;99.90;;;;;;5051676;28;20011;-77
2022/01/17 04:36:15;;;;;;;;;;;3.50;99.90;;;;;;5052800;28;20323;-77
2022/01/17 04:38:41;;;;;;;;;;;3.50;99.90;;;;;;5041932;28;19913;-77
2022/01/17 04:41:14;;;;;;;;;;;3.50;99.90;;;;;;5048227;28;19919;-77
2022/01/17 04:46:07;;;;;;;;;;;3.50;99.90;;;;;;5047624;28;19923;-77
2022/01/17 04:48:33;;;;;;;;;;;3.50;99.90;;;;;;5049858;28;19912;-76
2022/01/17 04:50:59;;;;;;;;;;;3.60;99.90;;;;;;5052962;28;20235;-76
2022/01/17 04:53:28;;;;;;;;;;;3.60;99.90;;;;;;5052877;28;19912;-76
2022/01/17 04:55:54;;;;;;;;;;;3.60;99.90;;;;;;5052268;28;19917;-77
2022/01/17 04:58:19;;;;;;;;;;;3.50;99.90;;;;;;5053917;28;20418;-76
2022/01/17 05:00:48;;;;;;;;;;;3.50;99.90;;;;;;5052545;28;19920;-77
2022/01/17 05:03:14;;;;;;;;;;;3.50;99.90;;;;;;5053488;28;19920;-78
2022/01/17 05:05:40;;;;;;;;;;;3.60;99.90;;;;;;5073184;28;20002;-78
2022/01/17 05:08:05;;;;;;;;;;;3.60;99.90;;;;;;5074711;28;20010;-78
2022/01/17 05:10:31;;;;;;;;;;;3.70;99.90;;;;;;5072943;28;20015;-77
2022/01/17 05:12:56;;;;;;;;;;;3.70;99.90;;;;;;5055041;28;19913;-78
2022/01/17 05:18:12;;;;;;;;;;;3.80;99.90;;;;;;5073114;28;20323;-78
2022/01/17 05:20:39;;;;;;;;;;;3.80;99.90;;;;;;5060034;28;19967;-78
2022/01/17 05:23:05;;;;;;;;;;;3.90;99.90;;;;;;5077463;28;19986;-78
2022/01/17 05:25:30;;;;;;;;;;;4.00;99.90;;;;;;5077637;28;20304;-78
2022/01/17 05:27:56;;;;;;;;;;;3.90;99.90;;;;;;5054491;28;20000;-78
2022/01/17 05:30:22;;;;;;;;;;;4.00;99.90;;;;;;5077841;28;19912;-77
2022/01/17 05:32:49;;;;;;;;;;;4.00;99.90;;;;;;5059543;28;19913;-77
2022/01/17 05:35:15;;;;;;;;;;;3.90;99.90;;;;;;5063227;23;19996;-78
2022/01/17 05:37:41;;;;;;;;;;;3.90;99.90;;;;;;5072788;28;20300;-78
2022/01/17 05:40:07;;;;;;;;;;;3.90;99.90;;;;;;5054444;28;19917;-78
2022/01/17 05:42:33;;;;;;;;;;;4.00;99.90;;;;;;5065266;28;19913;-78
2022/01/17 05:44:59;;;;;;;;;;;4.00;99.90;;;;;;5070441;28;20196;-79
2022/01/17 05:47:24;;;;;;;;;;;4.10;99.90;;;;;;5059868;28;19920;-78
2022/01/17 05:49:50;;;;;;;;;;;4.10;99.90;;;;;;5077566;28;19916;-78
2022/01/17 05:52:15;;;;;;;;;;;4.10;99.90;;;;;;5077427;28;19948;-77
2022/01/17 05:54:41;;;;;;;;;;;4.10;99.90;;;;;;5077392;28;19915;-78
2022/01/17 05:57:07;;;;;;;;;;;4.20;99.90;;;;;;5058556;28;19924;-78
2022/01/17 05:59:32;;;;;;;;;;;4.30;99.90;;;;;;5077439;28;19920;-78
2022/01/17 06:01:58;;;;;;;;;;;4.40;99.90;;;;;;5059377;28;20007;-79
2022/01/17 06:04:23;;;;;;;;;;;4.60;99.90;;;;;;5075100;28;19913;-78
2022/01/17 06:06:49;;;;;;;;;;;4.70;99.90;;;;;;5077289;28;19913;-79
2022/01/17 06:09:15;;;;;;;;;;;4.80;99.90;;;;;;5077074;28;19921;-78
2022/01/17 06:11:40;;;;;;;;;;;4.80;99.90;;;;;;5077264;28;19913;-78
2022/01/17 06:14:07;;;;;;;;;;;5.00;99.90;;;;;;5059482;28;19919;-79
2022/01/17 06:16:33;;;;;;;;;;;5.00;99.90;;;;;;5076659;28;19916;-79
2022/01/17 06:18:58;;;;;;;;;;;5.00;99.90;;;;;;5057190;28;19913;-78
2022/01/17 06:21:24;;;;;;;;;;;5.10;99.90;;;;;;5073459;28;19920;-79
2022/01/17 06:23:50;;;;;;;;;;;5.10;99.90;;;;;;5074050;28;19916;-77
2022/01/17 06:26:15;;;;;;;;;;;5.10;99.90;;;;;;5074178;28;20004;-79
2022/01/17 06:28:41;;;;;;;;;;;5.10;99.90;;;;;;5074247;28;19948;-78
2022/01/17 06:31:06;;;;;;;;;;;5.10;99.90;;;;;;5075276;28;19908;-78
2022/01/17 06:33:32;;;;;;;;;;;5.10;99.90;;;;;;5069245;28;19913;-78
2022/01/17 06:35:57;;;;;;;;;;;5.10;99.90;;;;;;5070788;28;19929;-79
2022/01/17 06:38:23;;;;;;;;;;;5.10;99.90;;;;;;5070672;28;19913;-78
2022/01/17 06:40:48;;;;;;;;;;;5.20;99.90;;;;;;5068201;28;19913;-80
2022/01/17 06:43:14;;;;;;;;;;;5.20;99.90;;;;;;5065536;28;20209;-78
2022/01/17 06:45:40;;;;;;;;;;;5.20;99.90;;;;;;5074121;28;19913;-79
2022/01/17 06:48:06;;;;;;;;;;;5.20;99.90;;;;;;5074575;28;19917;-79
2022/01/17 06:50:32;;;;;;;;;;;5.20;99.90;;;;;;5064812;28;20251;-79
2022/01/17 06:52:57;;;;;;;;;;;5.30;99.90;;;;;;5074701;28;19912;-78
2022/01/17 06:55:23;;;;;;;;;;;5.40;99.90;;;;;;5072168;28;19912;-79
2022/01/17 06:57:49;;;;;;;;;;;5.50;99.90;;;;;;5074181;28;19916;-79
2022/01/17 07:00:15;;;;;;;;;;;5.50;99.90;;;;;;5054959;28;20215;-79
2022/01/17 07:02:41;;;;;;;;;;;5.60;99.90;;;;;;5055894;28;19927;-79
2022/01/17 07:05:06;;;;;;;;;;;5.50;99.90;;;;;;5056208;28;19917;-80
2022/01/17 07:07:32;;;;;;;;;;;5.60;99.90;;;;;;5067609;28;19919;-79
2022/01/17 07:09:57;;;;;;;;;;;5.70;99.90;;;;;;5068020;28;19917;-79
2022/01/17 07:12:23;;;;;;;;;;;5.70;99.90;;;;;;5068852;28;19938;-80
2022/01/17 07:14:49;;;;;;;;;;;5.70;99.90;;;;;;5074425;28;19908;-79
2022/01/17 07:17:14;;;;;;;;;;;5.70;99.90;;;;;;5069164;28;19920;-78
2022/01/17 07:19:40;;;;;;;;;;;5.70;99.90;;;;;;5054779;28;19919;-79
2022/01/17 07:22:06;;;;;;;;;;;5.70;99.90;;;;;;5074344;28;19920;-80
2022/01/17 07:24:32;;;;;;;;;;;5.80;99.90;;;;;;5074626;28;19916;-79
2022/01/17 07:26:58;;;;;;;;;;;5.80;99.90;;;;;;5070124;28;20006;-77
2022/01/17 07:29:24;;;;;;;;;;;5.80;99.90;;;;;;5074278;28;19995;-78
2022/01/17 07:31:50;;;;;;;;;;;5.80;99.90;;;;;;5062604;28;19924;-79
2022/01/17 07:34:16;;;;;;;;;;;5.80;99.90;;;;;;5075952;28;19908;-80
2022/01/17 07:36:41;;;;;;;;;;;5.90;99.90;;;;;;5073405;28;19924;-80
2022/01/17 07:39:07;;;;;;;;;;;5.90;99.90;;;;;;5074003;28;20230;-78
2022/01/17 07:41:32;;;;;;;;;;;5.90;99.90;;;;;;5073577;28;20203;-78
2022/01/17 07:44:01;;;;;;;;;;;5.90;99.90;;;;;;5055168;28;19962;-79
2022/01/17 07:46:35;;;;;;;;;;;6.00;99.90;;;;;;5063409;28;19917;-79
2022/01/17 07:49:10;;;;;;;;;;;6.00;99.90;;;;;;5061295;28;19959;-79
2022/01/17 07:51:41;;;;;;;;;;;6.00;99.90;;;;;;5076977;28;19952;-78
2022/01/17 07:54:08;;;;;;;;;;;6.00;99.90;;;;;;5075996;28;20315;-79
2022/01/17 07:56:34;;;;;;;;;;;6.10;99.90;;;;;;5072450;28;20007;-78
2022/01/17 07:59:00;;;;;;;;;;;6.10;99.90;;;;;;5073431;28;19917;-78
2022/01/17 08:01:26;;;;;;;;;;;6.10;99.90;;;;;;5077596;28;19919;-78
2022/01/17 08:03:51;;;;;;;;;;;6.10;99.90;;;;;;5073252;28;19927;-79
2022/01/17 08:06:17;;;;;;;;;;;6.20;99.90;;;;;;5077563;28;19926;-79
2022/01/17 08:08:43;;;;;;;;;;;6.20;99.90;;;;;;5078251;28;19999;-80
2022/01/17 08:11:08;;;;;;;;;;;6.30;99.90;;;;;;5068598;22;19928;-79
2022/01/17 08:13:35;;;;;;;;;;;6.30;99.90;;;;;;5079069;28;19923;-78
2022/01/17 08:16:02;;;;;;;;;;;6.30;99.90;;;;;;5061929;28;19924;-78
2022/01/17 08:18:28;;;;;;;;;;;6.40;99.90;;;;;;5073015;28;19917;-78
2022/01/17 08:20:53;;;;;;;;;;;6.40;99.90;;;;;;5072777;28;19989;-78
2022/01/17 08:23:19;;;;;;;;;;;6.40;99.90;;;;;;5071650;28;19923;-78
2022/01/17 08:25:45;;;;;;;;;;;6.40;99.90;;;;;;5076925;28;19916;-79
2022/01/17 08:28:10;;;;;;;;;;;6.50;99.90;;;;;;5071960;28;19913;-78
2022/01/17 08:30:36;;;;;;;;;;;6.50;99.90;;;;;;5061088;28;19925;-79
2022/01/17 08:33:02;;;;;;;;;;;6.50;99.90;;;;;;5062091;28;19920;-78
2022/01/17 08:35:27;;;;;;;;;;;6.50;99.90;;;;;;5079078;28;19964;-78
2022/01/17 08:37:53;;;;;;;;;;;6.60;99.90;;;;;;5077716;28;19959;-77
2022/01/17 08:40:19;;;;;;;;;;;6.60;99.90;;;;;;5072473;28;19959;-78
2022/01/17 08:42:45;;;;;;;;;;;6.60;99.90;;;;;;5071037;28;19916;-78
2022/01/17 08:45:12;;;;;;;;;;;6.60;99.90;;;;;;5069124;28;19991;-79
2022/01/17 08:47:38;;;;;;;;;;;6.60;99.90;;;;;;5054829;28;19939;-78
2022/01/17 08:50:05;;;;;;;;;;;6.70;99.90;;;;;;5058446;28;19916;-79
2022/01/17 08:52:30;;;;;;;;;;;6.70;99.90;;;;;;5075142;28;20204;-77
2022/01/17 08:54:56;;;;;;;;;;;6.70;99.90;;;;;;5076945;28;19915;-78
2022/01/17 08:57:21;;;;;;;;;;;6.70;99.90;;;;;;5072662;28;19916;-78
2022/01/17 08:59:47;;;;;;;;;;;6.70;99.90;;;;;;5074522;28;19920;-77
2022/01/17 09:02:13;;;;;;;;;;;6.80;99.90;;;;;;5064421;28;19971;-77
2022/01/17 09:04:41;;;;;;;;;;;6.80;99.90;;;;;;5072465;28;19921;-78
2022/01/17 09:07:07;;;;;;;;;;;6.80;99.90;;;;;;5072574;28;19917;-77
2022/01/17 09:09:33;;;;;;;;;;;6.90;99.90;;;;;;5069937;28;20379;-77
2022/01/17 09:11:58;;;;;;;;;;;6.90;99.90;;;;;;5057019;28;20011;-78
2022/01/17 09:14:24;;;;;;;;;;;6.90;99.90;;;;;;5073085;28;19912;-78
2022/01/17 09:16:49;;;;;;;;;;;7.00;99.90;;;;;;5072586;28;20307;-77
2022/01/17 09:19:15;;;;;;;;;;;7.00;99.90;;;;;;5067036;28;20023;-77
2022/01/17 09:21:41;;;;;;;;;;;7.00;99.90;;;;;;5053471;28;19998;-78
2022/01/17 09:24:07;;;;;;;;;;;7.10;99.90;;;;;;5071568;28;19922;-77
2022/01/17 09:26:32;;;;;;;;;;;7.10;99.90;;;;;;5071141;28;19996;-77
2022/01/17 09:28:58;;;;;;;;;;;7.10;99.90;;;;;;5072567;28;20572;-77
2022/01/17 09:31:23;;;;;;;;;;;7.20;99.90;;;;;;5056028;28;19950;-78
2022/01/17 09:33:49;;;;;;;;;;;7.20;99.90;;;;;;5071616;28;20007;-77
2022/01/17 09:36:15;;;;;;;;;;;7.30;99.90;;;;;;5072445;28;19921;-78
2022/01/17 09:38:40;;;;;;;;;;;7.30;99.90;;;;;;5068749;28;19920;-78
2022/01/17 09:41:06;;;;;;;;;;;7.30;99.90;;;;;;5056941;28;20619;-77
2022/01/17 09:43:33;;;;;;;;;;;7.30;99.90;;;;;;5052645;28;19917;-79
2022/01/17 09:45:59;;;;;;;;;;;7.30;99.90;;;;;;5072793;28;19920;-76
2022/01/17 09:48:34;;;;;;;;;;;7.40;99.90;;;;;;5071208;28;19924;-78
2022/01/17 09:51:15;;;;;;;;;;;7.40;99.90;;;;;;5067492;28;20332;-79
2022/01/17 09:53:41;;;;;;;;;;;7.40;99.90;;;;;;5059329;28;19923;-78
2022/01/17 09:56:07;;;;;;;;;;;7.40;99.90;;;;;;5069328;28;19924;-76
2022/01/17 09:58:35;;;;;;;;;;;7.40;99.90;;;;;;5065520;28;20254;-76
2022/01/17 10:01:01;;;;;;;;;;;7.40;99.90;;;;;;5070857;28;19924;-78
2022/01/17 10:03:27;;;;;;;;;;;7.50;99.90;;;;;;5056246;28;19916;-76
2022/01/17 10:05:52;;;;;;;;;;;7.60;99.90;;;;;;5067318;28;20296;-76
2022/01/17 10:08:20;;;;;;;;;;;7.60;99.90;;;;;;5072558;28;19912;-76
2022/01/17 10:10:57;;;;;;;;;;;7.60;99.90;;;;;;5070368;28;20402;-78
2022/01/17 10:13:37;;;;;;;;;;;7.60;99.90;;;;;;5071807;28;20342;-76
2022/01/17 10:16:08;;;;;;;;;;;7.70;99.90;;;;;;5072051;28;19920;-76
2022/01/17 10:18:40;;;;;;;;;;;7.70;99.90;;;;;;5072252;28;19966;-77
2022/01/17 10:21:19;;;;;;;;;;;7.70;99.90;;;;;;5072631;28;20335;-75
2022/01/17 10:24:15;;;;;;;;;;;7.80;99.90;;;;;;5071309;28;20011;-76
2022/01/17 10:30:29;;;;;;;;;;;7.80;99.90;;;;;;5073356;28;19917;-75
2022/01/17 10:35:18;;;;;;;;;;;7.90;99.90;;;;;;5053962;28;19924;-76
2022/01/17 10:38:02;;;;;;;;;;;8.00;99.90;;;;;;5035297;28;20267;-75
2022/01/17 10:40:30;;;;;;;;;;;8.00;99.90;;;;;;5069587;28;20015;-76
2022/01/17 10:42:55;;;;;;;;;;;8.00;99.90;;;;;;5062128;28;19934;-75
2022/01/17 10:45:23;;;;;;;;;;;8.00;99.90;;;;;;5070386;28;20335;-75
2022/01/17 10:47:49;;;;;;;;;;;8.00;99.90;;;;;;5072994;28;20308;-77
2022/01/17 10:50:18;;;;;;;;;;;8.00;99.90;;;;;;5069144;28;19912;-75
2022/01/17 10:52:48;;;;;;;;;;;8.10;99.90;;;;;;5071667;28;19935;-75
2022/01/17 10:55:17;;;;;;;;;;;8.10;99.90;;;;;;5070791;28;20319;-73
2022/01/17 10:57:43;;;;;;;;;;;8.10;99.90;;;;;;5071714;28;20035;-75
2022/01/17 11:00:11;;;;;;;;;;;8.20;99.90;;;;;;5070345;28;19916;-75
2022/01/17 11:02:37;;;;;;;;;;;8.20;99.90;;;;;;5071351;28;20010;-74
2022/01/17 11:05:04;;;;;;;;;;;8.20;99.90;;;;;;5071560;28;19912;-75
2022/01/17 11:07:30;;;;;;;;;;;8.20;99.90;;;;;;5070627;28;19924;-75
2022/01/17 11:10:00;;;;;;;;;;;8.30;99.90;;;;;;5072230;28;20223;-75
2022/01/17 11:12:28;;;;;;;;;;;8.30;99.90;;;;;;5065587;28;20323;-74
2022/01/17 11:14:55;;;;;;;;;;;8.40;99.90;;;;;;5054335;28;19923;-74
2022/01/17 11:17:21;;;;;;;;;;;8.40;99.90;;;;;;5072256;28;20023;-74
2022/01/17 11:20:07;;;;;;;;;;;8.40;99.90;;;;;;5071529;28;20007;-75
2022/01/17 11:22:33;;;;;;;;;;;8.40;99.90;;;;;;5071237;28;19989;-74
2022/01/17 11:24:59;;;;;;;;;;;8.50;99.90;;;;;;5058019;28;19935;-74
2022/01/17 11:27:25;;;;;;;;;;;8.50;99.90;;;;;;5053839;28;19935;-74
2022/01/17 11:29:51;;;;;;;;;;;8.50;99.90;;;;;;5072301;28;19916;-76
2022/01/17 11:32:16;;;;;;;;;;;8.50;99.90;;;;;;5052241;28;20010;-74
2022/01/17 11:34:42;;;;;;;;;;;8.60;99.90;;;;;;5053066;28;20003;-74
2022/01/17 11:37:09;;;;;;;;;;;8.60;99.90;;;;;;5069503;28;19924;-74
2022/01/17 11:39:43;;;;;;;;;;;8.60;99.90;;;;;;5058689;28;19912;-75
2022/01/17 11:42:27;;;;;;;;;;;8.60;99.90;;;;;;5060899;28;20230;-74
2022/01/17 11:44:52;;;;;;;;;;;8.50;99.90;;;;;;5068733;28;20337;-75
2022/01/17 11:47:39;;;;;;;;;;;8.60;99.90;;;;;;5064073;28;19916;-74
2022/01/17 11:50:23;;;;;;;;;;;8.60;99.90;;;;;;5069859;28;19917;-75
2022/01/17 11:52:48;;;;;;;;;;;8.60;99.90;;;;;;5052902;28;20291;-74
2022/01/17 11:55:34;;;;;;;;;;;8.60;99.90;;;;;;5070981;28;19966;-74
2022/01/17 11:58:19;;;;;;;;;;;8.60;99.90;;;;;;5068067;28;19920;-74
2022/01/17 12:00:48;;;;;;;;;;;8.60;99.90;;;;;;5071188;28;19960;-74
2022/01/17 12:03:17;;;;;;;;;;;8.60;99.90;;;;;;5047734;28;19956;-74
2022/01/17 12:05:42;;;;;;;;;;;8.60;99.90;;;;;;5053288;28;19939;-75
2022/01/17 12:08:09;;;;;;;;;;;8.60;99.90;;;;;;5069817;28;19920;-74
2022/01/17 12:10:39;;;;;;;;;;;8.60;99.90;;;;;;5057796;28;19917;-74
2022/01/17 12:13:11;;;;;;;;;;;8.60;99.90;;;;;;5071011;28;19916;-74
2022/01/17 12:15:57;;;;;;;;;;;8.60;99.90;;;;;;5064000;28;19917;-74
2022/01/17 12:18:30;;;;;;;;;;;8.60;99.90;;;;;;5069893;28;19977;-74
2022/01/17 12:20:55;;;;;;;;;;;8.60;99.90;;;;;;5052317;28;19917;-74
2022/01/17 12:23:25;;;;;;;;;;;8.60;99.90;;;;;;5069418;28;19916;-73
2022/01/17 12:25:51;;;;;;;;;;;8.60;99.90;;;;;;5048885;28;20227;-74
2022/01/17 12:28:16;;;;;;;;;;;8.60;99.90;;;;;;5072042;28;19934;-74
2022/01/17 12:30:47;;;;;;;;;;;8.60;99.90;;;;;;5070642;28;19916;-74
2022/01/17 12:33:13;;;;;;;;;;;8.60;99.90;;;;;;5066546;28;19909;-74
2022/01/17 12:35:45;;;;;;;;;;;8.60;99.90;;;;;;5070354;28;19927;-74
2022/01/17 12:38:14;;;;;;;;;;;8.60;99.90;;;;;;5068785;28;20239;-76
2022/01/17 12:40:42;;;;;;;;;;;8.60;99.90;;;;;;5065494;28;19963;-73
2022/01/17 12:43:09;;;;;;;;;;;8.70;99.90;;;;;;5055281;28;19921;-74
2022/01/17 12:45:35;;;;;;;;;;;8.70;99.90;;;;;;5069220;28;19942;-73
2022/01/17 12:48:02;;;;;;;;;;;8.70;99.90;;;;;;5070355;28;19920;-75
2022/01/17 12:50:29;;;;;;;;;;;8.60;99.90;;;;;;5066573;28;20257;-74
2022/01/17 12:52:56;;;;;;;;;;;8.70;99.90;;;;;;5055760;28;19917;-74
2022/01/17 12:55:22;;;;;;;;;;;8.70;99.90;;;;;;5061783;28;19966;-75
2022/01/17 12:57:48;;;;;;;;;;;8.70;99.90;;;;;;5055040;28;19935;-73
2022/01/17 13:00:18;;;;;;;;;;;8.70;99.90;;;;;;5069423;28;19924;-74
2022/01/17 13:02:48;;;;;;;;;;;8.70;99.90;;;;;;5067868;28;19916;-74
2022/01/17 13:05:14;;;;;;;;;;;8.70;99.90;;;;;;5060823;28;19972;-74
2022/01/17 13:07:45;;;;;;;;;;;8.70;99.90;;;;;;5074835;28;19950;-74
2022/01/17 13:10:11;;;;;;;;;;;8.70;99.90;;;;;;5068677;28;19916;-75
2022/01/17 13:12:38;;;;;;;;;;;8.70;99.90;;;;;;5067744;28;19974;-74
2022/01/17 13:15:04;;;;;;;;;;;8.70;99.90;;;;;;5069898;28;19916;-73
2022/01/17 13:17:32;;;;;;;;;;;8.70;99.90;;;;;;5066379;28;19974;-73
2022/01/17 13:19:58;;;;;;;;;;;8.70;99.90;;;;;;5064121;28;19928;-74
2022/01/17 13:22:25;;;;;;;;;;;8.80;99.90;;;;;;5061015;28;19920;-74
2022/01/17 13:25:02;;;;;;;;;;;8.70;99.90;;;;;;5070251;28;20282;-74
2022/01/17 13:27:31;;;;;;;;;;;8.70;99.90;;;;;;5057940;28;20226;-73
2022/01/17 13:29:57;;;;;;;;;;;8.80;99.90;;;;;;5069271;28;19916;-74
2022/01/17 13:32:31;;;;;;;;;;;8.80;99.90;;;;;;5069778;28;20345;-73
2022/01/17 13:35:04;;;;;;;;;;;8.80;99.90;;;;;;5070210;28;19921;-74
2022/01/17 13:37:30;;;;;;;;;;;8.80;99.90;;;;;;5069804;28;19939;-73
2022/01/17 13:39:55;;;;;;;;;;;8.80;99.90;;;;;;5071581;28;20551;-74
2022/01/17 13:42:23;;;;;;;;;;;8.80;99.90;;;;;;5072668;28;20208;-74
2022/01/17 13:44:51;;;;;;;;;;;8.80;99.90;;;;;;5070130;28;19921;-73
2022/01/17 13:47:16;;;;;;;;;;;8.80;99.90;;;;;;5059839;28;19932;-74
2022/01/17 13:49:44;;;;;;;;;;;8.70;99.90;;;;;;5056262;28;20243;-74
2022/01/17 13:52:11;;;;;;;;;;;8.70;99.90;;;;;;5059480;28;19927;-74
2022/01/17 13:54:41;;;;;;;;;;;8.70;99.90;;;;;;5074216;28;19917;-74
2022/01/17 13:57:11;;;;;;;;;;;8.60;99.90;;;;;;5072748;28;19920;-73
2022/01/17 13:59:36;;;;;;;;;;;8.60;99.90;;;;;;5053154;28;19916;-74
2022/01/17 14:02:12;;;;;;;;;;;8.50;99.90;;;;;;5072629;28;20349;-73
2022/01/17 14:04:40;;;;;;;;;;;8.40;99.90;;;;;;5064615;28;19969;-73
2022/01/17 14:07:19;;;;;;;;;;;8.40;99.90;;;;;;5073461;28;19916;-73
2022/01/17 14:09:44;;;;;;;;;;;8.30;99.90;;;;;;5073481;28;19951;-73
2022/01/17 14:12:10;;;;;;;;;;;8.30;99.90;;;;;;5071147;28;20038;-74
2022/01/17 14:14:36;;;;;;;;;;;8.30;99.90;;;;;;5071438;28;19935;-73
2022/01/17 14:17:01;;;;;;;;;;;8.20;99.90;;;;;;5073804;28;19955;-73
2022/01/17 14:19:31;;;;;;;;;;;8.40;99.90;;;;;;5080441;28;19912;-74
2022/01/17 14:22:01;;;;;;;;;;;8.50;99.90;;;;;;5089415;28;19919;-73
2022/01/17 14:24:34;;;;;;;;;;;8.60;99.90;;;;;;5073283;28;19931;-73
2022/01/17 14:27:19;;;;;;;;;;;8.70;99.90;;;;;;5069692;28;20312;-74
2022/01/17 14:29:55;;;;;;;;;;;8.80;99.90;;;;;;5070900;28;19913;-74
2022/01/17 14:32:20;;;;;;;;;;;8.80;99.90;;;;;;5073623;28;19912;-74
2022/01/17 14:34:47;;;;;;;;;;;8.70;99.90;;;;;;5073553;28;20197;-74
2022/01/17 14:37:15;;;;;;;;;;;8.70;99.90;;;;;;5073628;28;19916;-73
2022/01/17 14:39:42;;;;;;;;;;;8.60;99.90;;;;;;5073498;28;20286;-73
2022/01/17 14:42:08;;;;;;;;;;;8.60;99.90;;;;;;5055883;28;19917;-73
2022/01/17 14:44:35;;;;;;;;;;;8.50;99.90;;;;;;5064797;28;19924;-73
2022/01/17 14:47:01;;;;;;;;;;;8.50;99.90;;;;;;5070431;28;19916;-74
2022/01/17 14:49:30;;;;;;;;;;;8.40;99.90;;;;;;5072828;28;19965;-73
2022/01/17 14:51:57;;;;;;;;;;;8.30;99.90;;;;;;5088378;28;20303;-73